Time;durP1;ratioP1;P1;durP2;ratioP2;P2;SDS_P1;SDS_P2;PMS_P1;PMS_P2;Temp;Humidity;BMP_temperature;BMP_pressure;BME280_temperature;BME280_humidity;BME280_pressure;Samples;Min_cycle;Max_cycle;Signal;HPM_P1;HPM_P2
2023/09/25 00:02:04;;;;;;;3.80;2.60;;;;;;;;;;5060574;28;20049;-71
2023/09/25 00:04:33;;;;;;;4.07;2.65;;;;;;;;;;5044206;28;20045;-71
2023/09/25 00:07:01;;;;;;;4.13;2.75;;;;;;;;;;5062831;28;20406;-71
2023/09/25 00:09:28;;;;;;;3.45;2.35;;;;;;;;;;5058506;28;20047;-71
2023/09/25 00:11:55;;;;;;;4.38;2.67;;;;;;;;;;5067822;28;20430;-71
2023/09/25 00:14:21;;;;;;;3.83;2.47;;;;;;;;;;5066737;28;20051;-72
2023/09/25 00:16:48;;;;;;;6.30;2.72;;;;;;;;;;5049542;28;20049;-71
2023/09/25 00:19:15;;;;;;;4.13;2.97;;;;;;;;;;5061151;28;20045;-70
2023/09/25 00:21:43;;;;;;;5.80;2.58;;;;;;;;;;5055252;28;20056;-71
2023/09/25 00:24:10;;;;;;;4.70;2.92;;;;;;;;;;5052980;28;20076;-71
2023/09/25 00:26:36;;;;;;;4.05;2.80;;;;;;;;;;5068536;28;20506;-71
2023/09/25 00:29:03;;;;;;;3.92;2.88;;;;;;;;;;5050236;28;20045;-71
2023/09/25 00:31:30;;;;;;;5.97;2.80;;;;;;;;;;5048479;28;20490;-71
2023/09/25 00:33:57;;;;;;;4.28;2.85;;;;;;;;;;5063003;28;20041;-71
2023/09/25 00:36:23;;;;;;;3.42;2.65;;;;;;;;;;5052349;28;20049;-71
2023/09/25 00:38:52;;;;;;;3.38;2.53;;;;;;;;;;5038754;28;20136;-71
2023/09/25 00:41:19;;;;;;;5.93;2.78;;;;;;;;;;5052539;28;20040;-71
2023/09/25 00:43:46;;;;;;;5.75;2.97;;;;;;;;;;5055873;28;20400;-71
2023/09/25 00:46:12;;;;;;;7.22;2.72;;;;;;;;;;5051049;28;20044;-70
2023/09/25 00:48:42;;;;;;;7.22;3.25;;;;;;;;;;5061564;28;20061;-71
2023/09/25 00:51:09;;;;;;;5.80;3.10;;;;;;;;;;5054481;28;20532;-71
2023/09/25 00:53:36;;;;;;;3.85;2.92;;;;;;;;;;5059901;28;20541;-71
2023/09/25 00:56:04;;;;;;;4.75;3.15;;;;;;;;;;5049845;28;20040;-71
2023/09/25 00:58:31;;;;;;;6.32;3.05;;;;;;;;;;5060386;28;20491;-71
2023/09/25 01:00:58;;;;;;;6.43;2.78;;;;;;;;;;5062696;28;20052;-71
2023/09/25 01:03:25;;;;;;;7.75;3.42;;;;;;;;;;5057363;28;20064;-70
2023/09/25 01:05:51;;;;;;;3.53;2.50;;;;;;;;;;5062826;28;20063;-71
2023/09/25 01:08:18;;;;;;;5.00;2.83;;;;;;;;;;5046973;28;20045;-71
2023/09/25 01:10:45;;;;;;;4.90;2.55;;;;;;;;;;5054439;28;20055;-71
2023/09/25 01:13:13;;;;;;;7.00;3.05;;;;;;;;;;5056055;28;20044;-71
2023/09/25 01:15:40;;;;;;;4.20;2.50;;;;;;;;;;5062402;28;20477;-71
2023/09/25 01:18:07;;;;;;;5.20;3.38;;;;;;;;;;5051030;28;20534;-71
2023/09/25 01:20:34;;;;;;;5.47;2.50;;;;;;;;;;5060126;28;20053;-71
2023/09/25 01:23:02;;;;;;;5.55;2.75;;;;;;;;;;5042646;28;20051;-71
2023/09/25 01:25:29;;;;;;;4.93;2.85;;;;;;;;;;5050282;28;20455;-71
2023/09/25 01:27:55;;;;;;;3.65;2.63;;;;;;;;;;5055539;28;20041;-71
2023/09/25 01:30:22;;;;;;;4.15;2.85;;;;;;;;;;5059344;28;20489;-71
2023/09/25 01:32:52;;;;;;;3.70;2.53;;;;;;;;;;5043362;28;20055;-71
2023/09/25 01:35:20;;;;;;;3.88;2.63;;;;;;;;;;5051004;28;20040;-71
2023/09/25 01:37:47;;;;;;;7.90;2.90;;;;;;;;;;5060890;28;20045;-71
2023/09/25 01:40:17;;;;;;;4.07;2.72;;;;;;;;;;5069933;28;20056;-71
2023/09/25 01:42:44;;;;;;;2.83;2.30;;;;;;;;;;5062171;28;20568;-71
2023/09/25 01:45:12;;;;;;;4.20;2.80;;;;;;;;;;5057391;28;20407;-71
2023/09/25 01:47:40;;;;;;;3.67;2.53;;;;;;;;;;5051324;28;20044;-71
2023/09/25 01:50:08;;;;;;;5.85;2.63;;;;;;;;;;5067836;28;20063;-71
2023/09/25 01:52:35;;;;;;;6.40;2.53;;;;;;;;;;5056305;28;20492;-71
2023/09/25 01:55:03;;;;;;;5.70;2.50;;;;;;;;;;5052005;28;20484;-71
2023/09/25 01:57:31;;;;;;;4.88;2.40;;;;;;;;;;5054006;28;20103;-71
2023/09/25 01:59:58;;;;;;;3.90;2.70;;;;;;;;;;5051029;28;20052;-72
2023/09/25 02:02:24;;;;;;;5.35;2.40;;;;;;;;;;5045596;28;20048;-71
2023/09/25 02:04:51;;;;;;;5.57;2.67;;;;;;;;;;5052970;28;20045;-72
2023/09/25 02:07:18;;;;;;;5.80;3.75;;;;;;;;;;5043575;28;20042;-72
2023/09/25 02:09:45;;;;;;;3.55;2.53;;;;;;;;;;5053964;28;20053;-72
2023/09/25 02:12:12;;;;;;;4.65;2.78;;;;;;;;;;5047095;28;20386;-72
2023/09/25 02:14:40;;;;;;;4.60;2.92;;;;;;;;;;5049580;28;20045;-72
2023/09/25 02:17:06;;;;;;;4.15;2.80;;;;;;;;;;5055861;28;20049;-71
2023/09/25 02:19:33;;;;;;;5.90;2.85;;;;;;;;;;5050657;28;20056;-72
2023/09/25 02:21:59;;;;;;;4.78;2.95;;;;;;;;;;5044440;28;20045;-71
2023/09/25 02:24:26;;;;;;;5.45;3.22;;;;;;;;;;5046662;28;20056;-72
2023/09/25 02:26:52;;;;;;;11.57;3.35;;;;;;;;;;5053301;28;20048;-71
2023/09/25 02:29:20;;;;;;;4.30;2.90;;;;;;;;;;5047484;28;20042;-72
2023/09/25 02:31:48;;;;;;;6.40;3.20;;;;;;;;;;5040103;28;20045;-72
2023/09/25 02:34:16;;;;;;;5.65;3.10;;;;;;;;;;5048721;28;20045;-72
2023/09/25 02:36:43;;;;;;;5.72;3.00;;;;;;;;;;5053833;28;20045;-71
2023/09/25 02:39:10;;;;;;;5.43;3.03;;;;;;;;;;5051330;28;20068;-72
2023/09/25 02:41:37;;;;;;;6.15;2.95;;;;;;;;;;5045354;28;20485;-72
2023/09/25 02:44:03;;;;;;;4.25;3.20;;;;;;;;;;5053776;28;20519;-72
2023/09/25 02:46:30;;;;;;;5.03;2.85;;;;;;;;;;5045983;28;20052;-71
2023/09/25 02:48:58;;;;;;;4.30;2.65;;;;;;;;;;5051494;28;20056;-71
2023/09/25 02:51:25;;;;;;;5.80;3.15;;;;;;;;;;5044874;28;20524;-72
2023/09/25 02:53:52;;;;;;;4.75;3.15;;;;;;;;;;5054681;28;20044;-71
2023/09/25 02:56:19;;;;;;;6.13;2.78;;;;;;;;;;5045367;28;20052;-71
2023/09/25 02:58:46;;;;;;;5.22;2.90;;;;;;;;;;5052137;28;20060;-71
2023/09/25 03:01:13;;;;;;;4.78;3.10;;;;;;;;;;5042016;28;20045;-72
2023/09/25 03:03:40;;;;;;;3.78;2.88;;;;;;;;;;5042854;28;20044;-71
2023/09/25 03:06:07;;;;;;;4.43;2.90;;;;;;;;;;5047798;28;20051;-71
2023/09/25 03:08:34;;;;;;;5.35;3.40;;;;;;;;;;5046894;28;20051;-72
2023/09/25 03:11:01;;;;;;;6.95;3.00;;;;;;;;;;5048012;28;20053;-71
2023/09/25 03:13:27;;;;;;;4.50;2.80;;;;;;;;;;5054727;28;20049;-72
2023/09/25 03:15:54;;;;;;;5.65;3.55;;;;;;;;;;5052016;28;20489;-72
2023/09/25 03:18:21;;;;;;;4.90;2.85;;;;;;;;;;5054569;28;20052;-71
2023/09/25 03:20:47;;;;;;;4.60;2.80;;;;;;;;;;5043806;28;20056;-71
2023/09/25 03:23:15;;;;;;;5.00;2.92;;;;;;;;;;5045200;28;20470;-72
2023/09/25 03:25:42;;;;;;;5.35;2.63;;;;;;;;;;5052034;28;20044;-72
2023/09/25 03:28:09;;;;;;;3.80;2.78;;;;;;;;;;5049802;28;20094;-71
2023/09/25 03:30:35;;;;;;;7.68;3.30;;;;;;;;;;5051715;28;20053;-71
2023/09/25 03:33:02;;;;;;;3.58;2.55;;;;;;;;;;5050038;28;20057;-72
2023/09/25 03:35:28;;;;;;;4.95;3.22;;;;;;;;;;5042377;28;20131;-72
2023/09/25 03:37:55;;;;;;;4.53;3.03;;;;;;;;;;5050250;28;20041;-71
2023/09/25 03:40:23;;;;;;;7.40;2.90;;;;;;;;;;5055391;28;20049;-72
2023/09/25 03:42:49;;;;;;;3.90;2.60;;;;;;;;;;5048660;28;20074;-72
2023/09/25 03:45:16;;;;;;;4.20;2.67;;;;;;;;;;5051037;28;20125;-72
2023/09/25 03:47:43;;;;;;;4.70;2.72;;;;;;;;;;5046817;28;20413;-71
2023/09/25 03:50:10;;;;;;;4.40;2.80;;;;;;;;;;5045908;28;20049;-72
2023/09/25 03:52:37;;;;;;;5.57;2.78;;;;;;;;;;5043236;28;20049;-72
2023/09/25 03:55:04;;;;;;;3.92;2.55;;;;;;;;;;5057594;28;20049;-71
2023/09/25 03:57:32;;;;;;;5.75;3.03;;;;;;;;;;5052755;28;20053;-72
2023/09/25 03:59:58;;;;;;;5.03;2.65;;;;;;;;;;5050925;28;20052;-72
2023/09/25 04:02:25;;;;;;;5.57;3.40;;;;;;;;;;5035979;28;20042;-72
2023/09/25 04:04:52;;;;;;;4.88;2.70;;;;;;;;;;5048512;28;20045;-71
2023/09/25 04:07:19;;;;;;;5.25;2.88;;;;;;;;;;5041398;28;20095;-72
2023/09/25 04:09:45;;;;;;;3.45;2.78;;;;;;;;;;5046080;28;20132;-72
2023/09/25 04:12:14;;;;;;;5.32;2.90;;;;;;;;;;5046141;28;20056;-72
2023/09/25 04:14:42;;;;;;;3.50;2.25;;;;;;;;;;5051883;28;20084;-71
2023/09/25 04:17:10;;;;;;;4.93;2.55;;;;;;;;;;5041504;28;20048;-71
2023/09/25 04:19:37;;;;;;;5.35;2.90;;;;;;;;;;5049778;28;20118;-71
2023/09/25 04:22:06;;;;;;;7.15;2.85;;;;;;;;;;5043720;28;20046;-72
2023/09/25 04:24:34;;;;;;;4.47;2.58;;;;;;;;;;5049650;28;20486;-72
2023/09/25 04:27:02;;;;;;;3.72;2.90;;;;;;;;;;5052258;28;20072;-71
2023/09/25 04:29:28;;;;;;;5.95;3.10;;;;;;;;;;5048838;28;20056;-72
2023/09/25 04:31:56;;;;;;;5.93;2.75;;;;;;;;;;5056932;28;20041;-72
2023/09/25 04:34:23;;;;;;;3.70;2.63;;;;;;;;;;5043452;28;20458;-72
2023/09/25 04:36:49;;;;;;;5.05;3.35;;;;;;;;;;5044013;28;20049;-72
2023/09/25 04:39:16;;;;;;;5.55;3.17;;;;;;;;;;5041091;28;20504;-72
2023/09/25 04:41:43;;;;;;;4.30;3.05;;;;;;;;;;5045553;28;20045;-73
2023/09/25 04:44:10;;;;;;;4.85;2.65;;;;;;;;;;5044400;28;20049;-72
2023/09/25 04:46:37;;;;;;;5.30;3.50;;;;;;;;;;5039682;28;20068;-71
2023/09/25 04:49:06;;;;;;;7.82;3.67;;;;;;;;;;5045168;28;20048;-72
2023/09/25 04:51:33;;;;;;;5.93;3.33;;;;;;;;;;5046263;28;20053;-72
2023/09/25 04:54:01;;;;;;;5.63;3.05;;;;;;;;;;5053630;28;20045;-72
2023/09/25 04:56:28;;;;;;;4.07;2.58;;;;;;;;;;5051092;28;20041;-72
2023/09/25 04:58:54;;;;;;;4.70;2.92;;;;;;;;;;5046047;28;20267;-72
2023/09/25 05:01:21;;;;;;;4.40;3.15;;;;;;;;;;5045504;28;20064;-72
2023/09/25 05:03:47;;;;;;;6.28;2.90;;;;;;;;;;5051015;28;20049;-72
2023/09/25 05:06:16;;;;;;;5.15;3.17;;;;;;;;;;5051914;28;20045;-72
2023/09/25 05:08:43;;;;;;;5.20;3.03;;;;;;;;;;5039708;28;20070;-72
2023/09/25 05:11:10;;;;;;;5.68;3.00;;;;;;;;;;5048694;28;20095;-72
2023/09/25 05:13:37;;;;;;;8.55;4.18;;;;;;;;;;5053566;28;20045;-71
2023/09/25 05:16:04;;;;;;;11.05;4.05;;;;;;;;;;5048561;28;20419;-72
2023/09/25 05:18:30;;;;;;;8.35;4.70;;;;;;;;;;5050741;28;20423;-72
2023/09/25 05:20:58;;;;;;;9.98;4.22;;;;;;;;;;5045355;28;20136;-71
2023/09/25 05:23:26;;;;;;;7.18;3.72;;;;;;;;;;5040569;28;20106;-72
2023/09/25 05:25:53;;;;;;;10.65;4.15;;;;;;;;;;5053444;28;20048;-72
2023/09/25 05:28:19;;;;;;;9.88;3.50;;;;;;;;;;5040239;28;20496;-72
2023/09/25 05:30:47;;;;;;;7.32;3.38;;;;;;;;;;5043818;28;20100;-72
2023/09/25 05:33:14;;;;;;;6.75;3.65;;;;;;;;;;5043496;28;20073;-72
2023/09/25 05:35:40;;;;;;;7.15;3.60;;;;;;;;;;5037307;28;20075;-72
2023/09/25 05:38:07;;;;;;;7.90;2.95;;;;;;;;;;5051086;28;20116;-72
2023/09/25 05:40:35;;;;;;;4.97;3.13;;;;;;;;;;5052613;28;20053;-72
2023/09/25 05:43:02;;;;;;;8.55;3.67;;;;;;;;;;5050401;28;20059;-71
2023/09/25 05:45:29;;;;;;;6.18;3.50;;;;;;;;;;5042647;28;20048;-71
2023/09/25 05:47:55;;;;;;;5.22;3.50;;;;;;;;;;5049803;28;20049;-71
2023/09/25 05:50:22;;;;;;;6.95;3.45;;;;;;;;;;5045630;28;20072;-72
2023/09/25 05:52:49;;;;;;;6.65;3.28;;;;;;;;;;5054364;28;20133;-72
2023/09/25 05:55:16;;;;;;;5.53;3.58;;;;;;;;;;5040096;28;20481;-71
2023/09/25 05:57:44;;;;;;;5.00;3.08;;;;;;;;;;5056282;28;20040;-71
2023/09/25 06:00:12;;;;;;;4.20;2.90;;;;;;;;;;5061417;28;20431;-72
2023/09/25 06:02:39;;;;;;;5.00;3.08;;;;;;;;;;5048627;28;20049;-72
2023/09/25 06:05:06;;;;;;;9.68;3.53;;;;;;;;;;5047678;28;20099;-71
2023/09/25 06:07:33;;;;;;;6.60;3.00;;;;;;;;;;5037925;28;20053;-71
2023/09/25 06:10:01;;;;;;;5.55;3.58;;;;;;;;;;5045172;28;20060;-72
2023/09/25 06:12:28;;;;;;;5.63;3.10;;;;;;;;;;5050240;28;20048;-72
2023/09/25 06:14:55;;;;;;;8.30;3.45;;;;;;;;;;5045812;28;20049;-71
2023/09/25 06:17:26;;;;;;;4.63;3.20;;;;;;;;;;5045688;28;20050;-72
2023/09/25 06:19:53;;;;;;;5.00;3.13;;;;;;;;;;5048902;28;20051;-72
2023/09/25 06:22:21;;;;;;;4.53;3.20;;;;;;;;;;5042538;28;20045;-71
2023/09/25 06:24:47;;;;;;;4.53;3.05;;;;;;;;;;5049397;28;20080;-71
2023/09/25 06:27:14;;;;;;;4.45;3.10;;;;;;;;;;5042193;28;20045;-73
2023/09/25 06:29:41;;;;;;;6.65;2.90;;;;;;;;;;5044640;28;20041;-71
2023/09/25 06:32:10;;;;;;;4.63;3.10;;;;;;;;;;5045008;28;20046;-72
2023/09/25 06:34:36;;;;;;;4.85;3.10;;;;;;;;;;5044217;28;20049;-72
2023/09/25 06:37:03;;;;;;;6.70;3.50;;;;;;;;;;5047408;28;20409;-71
2023/09/25 06:39:29;;;;;;;4.25;3.03;;;;;;;;;;5047571;28;20048;-72
2023/09/25 06:41:56;;;;;;;5.30;3.30;;;;;;;;;;5044637;28;20049;-72
2023/09/25 06:44:22;;;;;;;7.18;3.60;;;;;;;;;;5046372;28;20073;-70
2023/09/25 06:46:49;;;;;;;6.90;4.10;;;;;;;;;;5052032;28;20049;-72
2023/09/25 06:49:18;;;;;;;7.75;4.10;;;;;;;;;;5050599;28;20060;-72
2023/09/25 06:51:46;;;;;;;6.25;4.07;;;;;;;;;;5051169;28;20451;-71
2023/09/25 06:54:12;;;;;;;6.32;3.58;;;;;;;;;;5054434;28;20045;-72
2023/09/25 06:56:39;;;;;;;8.90;4.43;;;;;;;;;;5044206;28;20050;-72
2023/09/25 06:59:05;;;;;;;8.02;4.20;;;;;;;;;;5044873;28;20045;-71
2023/09/25 07:01:32;;;;;;;9.25;4.78;;;;;;;;;;5049855;28;20045;-72
2023/09/25 07:03:58;;;;;;;7.90;4.85;;;;;;;;;;5047196;28;20049;-72
2023/09/25 07:06:26;;;;;;;6.88;4.10;;;;;;;;;;5055514;28;20409;-72
2023/09/25 07:08:53;;;;;;;8.60;4.57;;;;;;;;;;5048982;28;20494;-72
2023/09/25 07:11:20;;;;;;;8.05;4.28;;;;;;;;;;5047976;28;20503;-72
2023/09/25 07:13:46;;;;;;;7.32;4.30;;;;;;;;;;5045122;28;20045;-72
2023/09/25 07:16:13;;;;;;;7.00;4.03;;;;;;;;;;5039698;28;20559;-72
2023/09/25 07:18:39;;;;;;;6.72;4.53;;;;;;;;;;5045572;28;20041;-71
2023/09/25 07:21:06;;;;;;;9.18;5.80;;;;;;;;;;5050227;28;20045;-72
2023/09/25 07:23:34;;;;;;;8.55;4.90;;;;;;;;;;5048336;28;20397;-71
2023/09/25 07:26:02;;;;;;;8.05;5.38;;;;;;;;;;5048040;28;20094;-72
2023/09/25 07:28:29;;;;;;;8.10;4.80;;;;;;;;;;5040351;28;20049;-72
2023/09/25 07:30:56;;;;;;;9.80;5.70;;;;;;;;;;5048156;28;20067;-71
2023/09/25 07:33:23;;;;;;;10.20;6.25;;;;;;;;;;5041542;28;20087;-70
2023/09/25 07:35:49;;;;;;;10.73;6.07;;;;;;;;;;5047759;28;20050;-72
2023/09/25 07:38:16;;;;;;;10.18;5.00;;;;;;;;;;5051054;28;20465;-73
2023/09/25 07:40:44;;;;;;;10.10;5.88;;;;;;;;;;5041841;28;20416;-73
2023/09/25 07:43:11;;;;;;;9.75;6.18;;;;;;;;;;5050803;28;20049;-71
2023/09/25 07:45:38;;;;;;;10.38;6.38;;;;;;;;;;5043772;28;20416;-73
2023/09/25 07:48:06;;;;;;;11.23;6.18;;;;;;;;;;5038326;28;20049;-72
2023/09/25 07:50:34;;;;;;;6.90;5.05;;;;;;;;;;5044582;28;20098;-72
2023/09/25 07:53:01;;;;;;;7.60;4.88;;;;;;;;;;5045262;28;20052;-71
2023/09/25 07:55:28;;;;;;;6.70;4.55;;;;;;;;;;5047645;28;20041;-73
2023/09/25 07:57:56;;;;;;;7.78;5.05;;;;;;;;;;5044533;28;20096;-73
2023/09/25 08:00:24;;;;;;;6.75;4.97;;;;;;;;;;5043123;28;20107;-72
2023/09/25 08:02:52;;;;;;;9.05;5.15;;;;;;;;;;5040249;28;20041;-73
2023/09/25 08:05:18;;;;;;;5.85;4.80;;;;;;;;;;5043704;28;20053;-73
2023/09/25 08:07:45;;;;;;;7.60;4.57;;;;;;;;;;5049101;28;20095;-73
2023/09/25 08:10:12;;;;;;;6.18;4.43;;;;;;;;;;5044415;28;20056;-73
2023/09/25 08:12:39;;;;;;;6.13;3.28;;;;;;;;;;5047076;28;20048;-72
2023/09/25 08:15:08;;;;;;;7.22;3.25;;;;;;;;;;5043076;28;20075;-73
2023/09/25 08:17:35;;;;;;;3.72;2.53;;;;;;;;;;5046602;28;20139;-72
2023/09/25 08:20:13;;;;;;;3.92;2.42;;;;;;;;;;5049046;28;20140;-72
2023/09/25 08:22:40;;;;;;;3.42;2.20;;;;;;;;;;5047033;28;20138;-73
2023/09/25 08:25:08;;;;;;;4.72;2.60;;;;;;;;;;5048819;28;20049;-73
2023/09/25 08:27:35;;;;;;;3.80;2.33;;;;;;;;;;5042901;28;20081;-73
2023/09/25 08:30:01;;;;;;;3.03;2.22;;;;;;;;;;5048773;28;20053;-71
2023/09/25 08:32:29;;;;;;;5.50;2.13;;;;;;;;;;5044264;28;20047;-73
2023/09/25 08:34:56;;;;;;;3.03;2.10;;;;;;;;;;5039521;28;20050;-73
2023/09/25 08:37:22;;;;;;;3.63;2.22;;;;;;;;;;5049254;28;20061;-73
2023/09/25 08:39:49;;;;;;;7.68;2.50;;;;;;;;;;5043046;28;20260;-72
2023/09/25 08:42:17;;;;;;;4.07;2.10;;;;;;;;;;5047666;28;20408;-73
2023/09/25 08:44:43;;;;;;;3.65;2.33;;;;;;;;;;5039746;28;20051;-72
2023/09/25 08:47:10;;;;;;;3.50;2.08;;;;;;;;;;5040456;28;20059;-73
2023/09/25 08:49:41;;;;;;;5.32;2.60;;;;;;;;;;5048554;28;20063;-73
2023/09/25 08:52:08;;;;;;;3.83;2.00;;;;;;;;;;5053741;28;20493;-73
2023/09/25 08:54:36;;;;;;;2.92;2.10;;;;;;;;;;5040065;28;20397;-73
2023/09/25 08:57:05;;;;;;;5.32;2.38;;;;;;;;;;5042742;28;20045;-73
2023/09/25 08:59:32;;;;;;;3.40;2.10;;;;;;;;;;5044916;28;20052;-74
2023/09/25 09:01:58;;;;;;;4.28;1.85;;;;;;;;;;5044449;28;20049;-73
2023/09/25 09:04:25;;;;;;;4.30;2.10;;;;;;;;;;5046914;28;20092;-73
2023/09/25 09:06:53;;;;;;;3.25;1.90;;;;;;;;;;5047424;28;20049;-74
2023/09/25 09:09:20;;;;;;;4.10;2.20;;;;;;;;;;5056349;28;20045;-74
2023/09/25 09:11:50;;;;;;;3.40;1.80;;;;;;;;;;5046263;28;20537;-73
2023/09/25 09:14:32;;;;;;;3.70;1.90;;;;;;;;;;5050337;28;20186;-73
2023/09/25 09:16:59;;;;;;;7.70;2.30;;;;;;;;;;5044017;28;20081;-73
2023/09/25 09:19:26;;;;;;;4.05;2.03;;;;;;;;;;5049172;28;20467;-73
2023/09/25 09:22:03;;;;;;;4.85;2.20;;;;;;;;;;5043880;28;20045;-72
2023/09/25 09:24:32;;;;;;;3.00;2.20;;;;;;;;;;5043555;28;20052;-73
2023/09/25 09:26:59;;;;;;;3.58;1.90;;;;;;;;;;5041603;28;20041;-73
2023/09/25 09:29:26;;;;;;;2.25;1.92;;;;;;;;;;5048653;28;20067;-73
2023/09/25 09:31:54;;;;;;;3.08;1.80;;;;;;;;;;5044410;28;20509;-73
2023/09/25 09:34:23;;;;;;;3.60;1.90;;;;;;;;;;5044848;28;20051;-73
2023/09/25 09:36:51;;;;;;;4.53;1.50;;;;;;;;;;5038727;28;20049;-73
2023/09/25 09:39:20;;;;;;;3.22;1.88;;;;;;;;;;5046864;28;20311;-73
2023/09/25 09:41:49;;;;;;;3.85;2.00;;;;;;;;;;5047880;28;20287;-73
2023/09/25 09:44:16;;;;;;;2.42;1.75;;;;;;;;;;5051536;28;20102;-73
2023/09/25 09:46:44;;;;;;;3.20;1.70;;;;;;;;;;5048442;28;20132;-73
2023/09/25 09:49:16;;;;;;;2.50;1.90;;;;;;;;;;5046087;28;20115;-73
2023/09/25 09:51:44;;;;;;;3.28;1.90;;;;;;;;;;5045518;28;20045;-72
2023/09/25 09:54:12;;;;;;;3.20;1.88;;;;;;;;;;5044017;28;20069;-73
2023/09/25 09:56:40;;;;;;;2.80;1.73;;;;;;;;;;5048585;28;20049;-73
2023/09/25 09:59:07;;;;;;;2.45;1.88;;;;;;;;;;5045996;28;20501;-73
2023/09/25 10:01:35;;;;;;;3.45;1.75;;;;;;;;;;5049315;28;20041;-73
2023/09/25 10:04:03;;;;;;;2.25;1.52;;;;;;;;;;5049738;28;20505;-72
2023/09/25 10:06:29;;;;;;;3.38;1.70;;;;;;;;;;5044888;28;20072;-72
2023/09/25 10:09:01;;;;;;;2.60;1.83;;;;;;;;;;5047951;28;20455;-73
2023/09/25 10:11:27;;;;;;;2.30;1.35;;;;;;;;;;5041816;28;20470;-72
2023/09/25 10:13:56;;;;;;;2.80;1.63;;;;;;;;;;5046106;28;20495;-73
2023/09/25 10:16:22;;;;;;;3.22;1.42;;;;;;;;;;5045647;28;20079;-73
2023/09/25 10:18:51;;;;;;;2.22;1.33;;;;;;;;;;5047805;28;20046;-73
2023/09/25 10:21:18;;;;;;;3.92;1.40;;;;;;;;;;5044619;28;20049;-73
2023/09/25 10:23:48;;;;;;;2.22;1.63;;;;;;;;;;5043777;28;20140;-74
2023/09/25 10:26:19;;;;;;;3.30;1.60;;;;;;;;;;5045027;28;20046;-73
2023/09/25 10:28:46;;;;;;;2.80;1.50;;;;;;;;;;5044398;28;20045;-73
2023/09/25 10:31:25;;;;;;;1.85;1.40;;;;;;;;;;5052948;28;20052;-74
2023/09/25 10:33:57;;;;;;;1.98;1.13;;;;;;;;;;5043824;28;20060;-73
2023/09/25 10:36:36;;;;;;;1.60;1.13;;;;;;;;;;5049644;28;20044;-73
2023/09/25 10:39:02;;;;;;;4.88;1.40;;;;;;;;;;5050676;28;20048;-74
2023/09/25 10:41:29;;;;;;;2.50;1.70;;;;;;;;;;5047758;28;20045;-73
2023/09/25 10:43:57;;;;;;;3.25;1.90;;;;;;;;;;5051495;28;20485;-73
2023/09/25 10:46:24;;;;;;;3.50;1.33;;;;;;;;;;5048463;28;20122;-73
2023/09/25 10:48:51;;;;;;;2.10;1.40;;;;;;;;;;5046523;28;20420;-73
2023/09/25 10:51:19;;;;;;;3.50;1.40;;;;;;;;;;5050553;28;20045;-74
2023/09/25 10:53:46;;;;;;;3.80;1.42;;;;;;;;;;5051010;28;20408;-74
2023/09/25 10:56:13;;;;;;;1.95;1.20;;;;;;;;;;5058027;28;20049;-74
2023/09/25 10:58:39;;;;;;;3.28;1.45;;;;;;;;;;5046491;28;20056;-73
2023/09/25 11:01:06;;;;;;;1.38;1.10;;;;;;;;;;5054056;28;20473;-74
2023/09/25 11:03:36;;;;;;;1.52;1.17;;;;;;;;;;5048244;28;20060;-73
2023/09/25 11:06:04;;;;;;;3.78;1.52;;;;;;;;;;5050553;28;20301;-74
2023/09/25 11:08:34;;;;;;;1.52;1.25;;;;;;;;;;5047083;28;20053;-74
2023/09/25 11:11:02;;;;;;;2.15;1.30;;;;;;;;;;5054994;28;20049;-72
2023/09/25 11:13:28;;;;;;;3.13;1.50;;;;;;;;;;5052222;28;20051;-73
2023/09/25 11:15:56;;;;;;;4.15;1.40;;;;;;;;;;5049011;28;20049;-73
2023/09/25 11:18:22;;;;;;;2.28;1.30;;;;;;;;;;5047309;28;20504;-73
2023/09/25 11:20:51;;;;;;;2.67;1.20;;;;;;;;;;5055340;28;20049;-74
2023/09/25 11:23:19;;;;;;;3.08;1.30;;;;;;;;;;5054873;28;20048;-73
2023/09/25 11:25:47;;;;;;;3.75;1.42;;;;;;;;;;5050589;28;20049;-73
2023/09/25 11:28:17;;;;;;;2.38;1.30;;;;;;;;;;5050962;28;20045;-73
2023/09/25 11:30:46;;;;;;;2.03;1.25;;;;;;;;;;5047806;28;20059;-72
2023/09/25 11:33:15;;;;;;;3.47;1.60;;;;;;;;;;5058640;28;20132;-74
2023/09/25 11:35:42;;;;;;;3.28;1.50;;;;;;;;;;5044725;28;20055;-73
2023/09/25 11:38:15;;;;;;;4.28;1.48;;;;;;;;;;5049661;28;20046;-74
2023/09/25 11:40:42;;;;;;;2.72;1.20;;;;;;;;;;5040159;28;20049;-74
2023/09/25 11:43:09;;;;;;;1.92;1.40;;;;;;;;;;5050632;28;20041;-74
2023/09/25 11:45:38;;;;;;;2.42;1.35;;;;;;;;;;5048648;28;20087;-73
2023/09/25 11:48:05;;;;;;;2.45;1.50;;;;;;;;;;5039643;28;20045;-73
2023/09/25 11:50:33;;;;;;;2.45;1.30;;;;;;;;;;5057379;28;20051;-74
2023/09/25 11:52:59;;;;;;;3.70;1.33;;;;;;;;;;5054750;28;20120;-74
2023/09/25 11:55:28;;;;;;;2.90;1.30;;;;;;;;;;5047406;28;20044;-74
2023/09/25 11:57:58;;;;;;;2.45;1.20;;;;;;;;;;5057724;28;20049;-74
2023/09/25 12:00:27;;;;;;;1.98;1.30;;;;;;;;;;5049443;28;20128;-73
2023/09/25 12:02:54;;;;;;;4.45;1.60;;;;;;;;;;5040555;28;20537;-73
2023/09/25 12:05:21;;;;;;;3.40;1.52;;;;;;;;;;5048106;28;20045;-73
2023/09/25 12:07:48;;;;;;;2.97;1.27;;;;;;;;;;5047540;28;20095;-73
2023/09/25 12:10:16;;;;;;;2.35;1.15;;;;;;;;;;5051950;28;20393;-74
2023/09/25 12:12:45;;;;;;;3.08;1.42;;;;;;;;;;5046896;28;20430;-73
2023/09/25 12:15:13;;;;;;;3.38;1.60;;;;;;;;;;5047901;28;20051;-74
2023/09/25 12:17:39;;;;;;;1.98;1.30;;;;;;;;;;5055529;28;20044;-74
2023/09/25 12:20:11;;;;;;;1.73;1.38;;;;;;;;;;5046428;28;20053;-72
2023/09/25 12:22:39;;;;;;;2.85;1.30;;;;;;;;;;5042556;28;20528;-73
2023/09/25 12:25:09;;;;;;;2.22;1.65;;;;;;;;;;5046253;28;20126;-74
2023/09/25 12:27:35;;;;;;;2.80;1.38;;;;;;;;;;5048640;28;20439;-73
2023/09/25 12:30:05;;;;;;;2.53;1.30;;;;;;;;;;5048511;28;20061;-73
2023/09/25 12:32:31;;;;;;;2.28;1.40;;;;;;;;;;5048535;28;20330;-73
2023/09/25 12:34:58;;;;;;;4.32;1.40;;;;;;;;;;5046423;28;20045;-74
2023/09/25 12:37:25;;;;;;;4.15;1.58;;;;;;;;;;5049760;28;20659;-73
2023/09/25 12:39:51;;;;;;;3.35;1.60;;;;;;;;;;5051120;28;20153;-73
2023/09/25 12:42:19;;;;;;;1.98;1.48;;;;;;;;;;5050805;28;20045;-73
2023/09/25 12:44:46;;;;;;;3.67;1.38;;;;;;;;;;5046175;28;20068;-74
2023/09/25 12:47:15;;;;;;;2.58;1.40;;;;;;;;;;5053084;28;20053;-73
2023/09/25 12:49:42;;;;;;;1.60;1.45;;;;;;;;;;5039793;28;20049;-73
2023/09/25 12:52:09;;;;;;;5.97;1.48;;;;;;;;;;5048534;28;20453;-73
2023/09/25 12:54:35;;;;;;;2.58;1.50;;;;;;;;;;5047862;28;20512;-73
2023/09/25 12:57:02;;;;;;;1.88;1.10;;;;;;;;;;5056091;28;20060;-73
2023/09/25 12:59:28;;;;;;;3.47;1.50;;;;;;;;;;5046421;28;20373;-73
2023/09/25 13:01:55;;;;;;;2.45;1.27;;;;;;;;;;5053759;28;20060;-73
2023/09/25 13:04:23;;;;;;;1.90;1.20;;;;;;;;;;5043056;28;20183;-73
2023/09/25 13:06:51;;;;;;;2.70;1.20;;;;;;;;;;5047105;28;20044;-73
2023/09/25 13:09:20;;;;;;;5.10;1.58;;;;;;;;;;5050159;28;20463;-74
2023/09/25 13:11:47;;;;;;;3.13;1.13;;;;;;;;;;5053421;28;20048;-74
2023/09/25 13:14:13;;;;;;;3.40;1.45;;;;;;;;;;5040850;28;20048;-74
2023/09/25 13:16:40;;;;;;;3.08;1.38;;;;;;;;;;5050760;28;20045;-72
2023/09/25 13:19:07;;;;;;;2.10;1.30;;;;;;;;;;5047794;28;20045;-73
2023/09/25 13:21:35;;;;;;;2.03;1.42;;;;;;;;;;5048956;28;20045;-72
2023/09/25 13:24:01;;;;;;;1.92;1.25;;;;;;;;;;5040460;28;20046;-72
2023/09/25 13:26:28;;;;;;;2.83;1.30;;;;;;;;;;5043181;28;20052;-73
2023/09/25 13:28:56;;;;;;;2.40;1.27;;;;;;;;;;5045615;28;20055;-73
2023/09/25 13:31:23;;;;;;;2.83;1.33;;;;;;;;;;5045311;28;20172;-72
2023/09/25 13:33:51;;;;;;;1.67;1.27;;;;;;;;;;5042934;28;20052;-73
2023/09/25 13:36:18;;;;;;;2.22;1.30;;;;;;;;;;5043287;28;20394;-73
2023/09/25 13:38:46;;;;;;;2.45;1.20;;;;;;;;;;5042975;28;20132;-73
2023/09/25 13:41:13;;;;;;;1.88;1.30;;;;;;;;;;5040209;28;20075;-73
2023/09/25 13:43:41;;;;;;;2.22;1.10;;;;;;;;;;5047788;28;20044;-73
2023/09/25 13:46:08;;;;;;;1.80;1.20;;;;;;;;;;5041633;28;20049;-73
2023/09/25 13:48:36;;;;;;;3.53;1.27;;;;;;;;;;5046961;28;20048;-73
2023/09/25 13:51:04;;;;;;;4.60;1.50;;;;;;;;;;5041191;28;20505;-72
2023/09/25 13:53:30;;;;;;;1.98;1.40;;;;;;;;;;5049121;28;20045;-73
2023/09/25 13:55:58;;;;;;;2.72;1.02;;;;;;;;;;5045865;28;20045;-72
2023/09/25 13:58:25;;;;;;;2.17;1.42;;;;;;;;;;5046256;28;20048;-73
2023/09/25 14:00:52;;;;;;;5.30;1.35;;;;;;;;;;5053253;28;20508;-73
2023/09/25 14:03:18;;;;;;;2.67;1.13;;;;;;;;;;5049071;28;20085;-72
2023/09/25 14:05:45;;;;;;;2.90;1.25;;;;;;;;;;5046493;28;20419;-71
2023/09/25 14:08:11;;;;;;;4.10;1.48;;;;;;;;;;5054233;28;20053;-73
2023/09/25 14:10:38;;;;;;;1.67;1.25;;;;;;;;;;5044739;28;20056;-73
2023/09/25 14:13:07;;;;;;;1.20;1.10;;;;;;;;;;5049369;28;20060;-73
2023/09/25 14:15:34;;;;;;;2.95;1.45;;;;;;;;;;5050670;28;20049;-73
2023/09/25 14:18:01;;;;;;;4.90;1.25;;;;;;;;;;5048106;28;20059;-72
2023/09/25 14:20:28;;;;;;;3.92;1.30;;;;;;;;;;5054607;28;20047;-76
2023/09/25 14:22:54;;;;;;;2.42;1.25;;;;;;;;;;5046445;28;20041;-73
2023/09/25 14:25:21;;;;;;;2.20;1.20;;;;;;;;;;5049961;28;20045;-73
2023/09/25 14:27:49;;;;;;;2.17;1.30;;;;;;;;;;5058522;28;20049;-73
2023/09/25 14:30:17;;;;;;;2.17;1.25;;;;;;;;;;5052659;28;20136;-73
2023/09/25 14:32:44;;;;;;;2.30;1.30;;;;;;;;;;5039675;28;20041;-72
2023/09/25 14:35:11;;;;;;;2.15;1.38;;;;;;;;;;5049354;28;20310;-76
2023/09/25 14:37:39;;;;;;;3.55;1.17;;;;;;;;;;5055128;28;20049;-74
2023/09/25 14:40:07;;;;;;;3.63;1.60;;;;;;;;;;5045620;28;20049;-74
2023/09/25 14:42:34;;;;;;;2.00;1.13;;;;;;;;;;5049544;28;20041;-74
2023/09/25 14:45:02;;;;;;;2.10;1.40;;;;;;;;;;5049879;28;20450;-73